Time;durP1;ratioP1;P1;durP2;ratioP2;P2;SDS_P1;SDS_P2;PMS_P1;PMS_P2;Temp;Humidity;BMP_temperature;BMP_pressure;BME280_temperature;BME280_humidity;BME280_pressure;Samples;Min_cycle;Max_cycle;Signal;HPM_P1;HPM_P2
2022/04/16 00:00:28;;;;;;;4.70;3.50;;;;;;;6.42;86.99;101350.15;1603192;88;26609;-76
2022/04/16 00:02:56;;;;;;;4.25;3.85;;;;;;;6.41;87.01;101356.95;1638607;86;26008;-76
2022/04/16 00:05:23;;;;;;;5.25;3.60;;;;;;;6.39;86.73;101346.94;1585291;89;27478;-77
2022/04/16 00:08:06;;;;;;;5.03;4.28;;;;;;;6.34;87.01;101367.31;1596521;88;26027;-76
2022/04/16 00:10:18;;;;;;;6.92;3.67;;;;;;;6.31;86.80;101366.77;1580895;88;25873;-76
2022/04/16 00:12:45;;;;;;;5.30;4.10;;;;;;;6.28;86.94;101368.37;1631376;86;25820;-77
2022/04/16 00:15:12;;;;;;;6.83;3.98;;;;;;;6.24;86.89;101363.31;1618407;87;25846;-76
2022/04/16 00:17:38;;;;;;;5.37;3.60;;;;;;;6.21;86.68;101373.41;1615437;87;27498;-76
2022/04/16 00:20:10;;;;;;;4.70;3.70;;;;;;;6.19;87.05;101374.04;1614448;87;25947;-77
2022/04/16 00:22:33;;;;;;;7.60;3.75;;;;;;;6.16;86.93;101369.83;1621096;87;26510;-76
2022/04/16 00:25:01;;;;;;;4.53;3.45;;;;;;;6.15;86.94;101379.29;1640171;86;25764;-77
2022/04/16 00:27:27;;;;;;;4.65;3.98;;;;;;;6.14;86.99;101387.75;1628929;86;26008;-77
2022/04/16 00:29:53;;;;;;;4.78;4.00;;;;;;;6.14;86.83;101382.91;1635305;86;27464;-77
2022/04/16 00:32:21;;;;;;;4.17;3.40;;;;;;;6.12;86.75;101383.06;1621325;87;25962;-76
2022/04/16 00:34:47;;;;;;;4.33;3.72;;;;;;;6.10;86.79;101377.52;1615363;87;25885;-77
2022/04/16 00:37:13;;;;;;;4.42;3.45;;;;;;;6.08;86.93;101386.14;1626544;87;26559;-76
2022/04/16 00:39:40;;;;;;;7.78;4.42;;;;;;;6.04;87.08;101382.92;1626557;87;25756;-77
2022/04/16 00:42:06;;;;;;;7.37;4.80;;;;;;;6.00;87.03;101386.84;1622823;87;28258;-76
2022/04/16 00:44:32;;;;;;;5.83;4.55;;;;;;;5.99;87.10;101389.14;1633077;86;25914;-77
2022/04/16 00:46:59;;;;;;;4.85;3.95;;;;;;;5.97;87.03;101384.45;1600928;88;25892;-77
2022/04/16 00:49:25;;;;;;;6.87;4.05;;;;;;;5.96;86.80;101393.42;1581150;88;25797;-76
2022/04/16 00:51:51;;;;;;;5.65;4.40;;;;;;;5.96;86.81;101385.44;1636198;86;25989;-77
2022/04/16 00:54:18;;;;;;;5.60;3.45;;;;;;;5.96;86.71;101388.58;1615836;87;28311;-76
2022/04/16 00:56:45;;;;;;;4.87;3.00;;;;;;;5.95;86.75;101392.20;1603744;88;26002;-77
2022/04/16 00:59:11;;;;;;;3.87;3.30;;;;;;;5.91;86.42;101392.98;1584546;88;26014;-77
2022/04/16 01:01:37;;;;;;;5.58;3.47;;;;;;;5.89;86.44;101399.41;1631760;86;25783;-76
2022/04/16 01:04:04;;;;;;;6.00;2.95;;;;;;;5.86;86.29;101404.50;1616360;87;25955;-76
2022/04/16 01:06:48;;;;;;;4.22;3.15;;;;;;;5.84;86.48;101413.59;1590948;88;28362;-76
2022/04/16 01:09:13;;;;;;;3.50;2.80;;;;;;;5.84;86.33;101406.94;1619297;87;26560;-76
2022/04/16 01:11:39;;;;;;;3.33;2.90;;;;;;;5.84;86.49;101414.92;1629232;86;25920;-76
2022/04/16 01:14:06;;;;;;;2.37;2.17;;;;;;;5.84;86.45;101421.08;1618721;87;26551;-77
2022/04/16 01:16:34;;;;;;;2.83;2.58;;;;;;;5.83;86.49;101412.73;1628220;86;25769;-77
2022/04/16 01:19:01;;;;;;;3.40;2.67;;;;;;;5.80;86.60;101428.95;1629144;86;27497;-76
2022/04/16 01:21:30;;;;;;;3.45;3.02;;;;;;;5.75;86.55;101417.05;1607221;89;26545;-76
2022/04/16 01:23:58;;;;;;;3.08;2.60;;;;;;;5.72;86.66;101422.15;1633551;86;25904;-75
2022/04/16 01:26:24;;;;;;;4.53;3.10;;;;;;;5.69;86.79;101425.06;1633798;86;25624;-76
2022/04/16 01:28:50;;;;;;;3.65;2.92;;;;;;;5.68;86.68;101426.53;1640008;86;25964;-77
2022/04/16 01:31:16;;;;;;;3.60;3.17;;;;;;;5.65;86.84;101432.95;1624509;87;27540;-76
2022/04/16 01:33:42;;;;;;;4.47;3.37;;;;;;;5.63;86.83;101428.27;1643836;86;25980;-76
2022/04/16 01:36:09;;;;;;;5.37;3.95;;;;;;;5.62;86.84;101431.92;1596560;88;25806;-76
2022/04/16 01:38:35;;;;;;;5.35;4.05;;;;;;;5.59;86.92;101434.83;1644391;86;26557;-76
2022/04/16 01:41:04;;;;;;;6.12;3.83;;;;;;;5.57;86.55;101435.94;1593237;88;25919;-76
2022/04/16 01:43:31;;;;;;;5.95;4.87;;;;;;;5.55;86.65;101433.42;1583336;88;27663;-75
2022/04/16 01:45:57;;;;;;;6.08;3.67;;;;;;;5.54;86.77;101441.02;1644586;86;26499;-76
2022/04/16 01:48:28;;;;;;;4.60;3.58;;;;;;;5.56;86.71;101446.23;1595600;88;26099;-76
2022/04/16 01:50:53;;;;;;;5.17;4.15;;;;;;;5.57;86.63;101450.55;1593512;88;26538;-77
2022/04/16 01:53:21;;;;;;;5.08;3.77;;;;;;;5.57;86.47;101444.75;1626570;86;26533;-76
2022/04/16 01:55:48;;;;;;;7.35;3.80;;;;;;;5.56;86.34;101436.41;1600090;88;28338;-76
2022/04/16 01:58:14;;;;;;;6.08;4.05;;;;;;;5.56;86.20;101449.70;1590048;88;25948;-76
2022/04/16 02:00:40;;;;;;;4.40;4.00;;;;;;;5.58;85.83;101457.05;1591761;88;25844;-77
2022/04/16 02:03:08;;;;;;;6.58;4.00;;;;;;;5.57;85.94;101448.74;1634853;86;26338;-76
2022/04/16 02:05:35;;;;;;;6.00;4.25;;;;;;;5.59;85.62;101452.58;1639421;86;25996;-76
2022/04/16 02:08:01;;;;;;;6.42;4.22;;;;;;;5.58;85.62;101458.89;1630535;86;27413;-77
2022/04/16 02:10:27;;;;;;;4.80;4.05;;;;;;;5.58;85.52;101456.23;1606549;88;25885;-76
2022/04/16 02:12:53;;;;;;;6.75;3.83;;;;;;;5.58;85.35;101466.35;1627313;86;25761;-76
2022/04/16 02:15:19;;;;;;;5.83;4.42;;;;;;;5.58;85.31;101460.22;1595692;88;25858;-77
2022/04/16 02:17:46;;;;;;;5.00;3.77;;;;;;;5.58;85.29;101474.33;1637466;86;25998;-77
2022/04/16 02:20:12;;;;;;;5.83;3.83;;;;;;;5.57;84.97;101467.34;1639670;86;27697;-76
2022/04/16 02:22:46;;;;;;;6.30;4.15;;;;;;;5.58;84.80;101471.67;1627726;87;26565;-76
2022/04/16 02:25:15;;;;;;;5.10;3.83;;;;;;;5.58;84.19;101486.80;1633152;86;26500;-76
2022/04/16 02:27:41;;;;;;;5.45;3.90;;;;;;;5.54;83.52;101474.24;1627991;87;26541;-76
2022/04/16 02:30:12;;;;;;;7.60;3.52;;;;;;;5.53;83.34;101489.00;1636682;86;26101;-76
2022/04/16 02:32:40;;;;;;;;;;;;;;;5.51;83.43;101487.81;1641728;86;28358;-77
2022/04/16 02:35:08;;;;;;;5.90;2.92;;;;;;;5.49;83.02;101475.15;1636948;86;25854;-76
2022/04/16 02:37:35;;;;;;;5.05;3.58;;;;;;;5.45;82.83;101506.44;1601634;88;25944;-76
2022/04/16 02:40:04;;;;;;;5.00;3.42;;;;;;;5.43;82.25;101492.95;1627770;86;25832;-76
2022/04/16 02:42:37;;;;;;;4.78;3.12;;;;;;;5.42;82.32;101493.91;1615772;87;25963;-76
2022/04/16 02:47:53;;;;;;;3.55;2.83;;;;;;;5.41;82.29;101497.05;1591167;88;25750;-76
2022/04/16 02:50:20;;;;;;;4.65;3.00;;;;;;;5.37;81.91;101498.77;1589797;88;25961;-76
2022/04/16 02:52:47;;;;;;;5.25;2.60;;;;;;;5.36;81.63;101501.09;1600958;88;25849;-76
2022/04/16 02:55:17;;;;;;;3.22;2.92;;;;;;;5.33;81.57;101506.64;1606731;87;26604;-76
2022/04/16 02:57:46;;;;;;;3.80;2.80;;;;;;;5.32;81.12;101504.98;1600682;87;27487;-76
2022/04/16 03:00:14;;;;;;;3.10;2.80;;;;;;;5.29;80.64;101511.87;1636337;86;25995;-77
2022/04/16 03:02:41;;;;;;;3.45;2.52;;;;;;;5.27;80.95;101517.80;1594071;88;25816;-77
2022/04/16 03:05:11;;;;;;;3.80;2.70;;;;;;;5.24;80.47;101526.02;1583724;88;25960;-76
2022/04/16 03:07:38;;;;;;;2.40;2.15;;;;;;;5.21;80.53;101520.98;1627124;86;25349;-76
2022/04/16 03:10:08;;;;;;;3.85;2.58;;;;;;;5.14;79.23;101520.66;1620228;87;27483;-76
2022/04/16 03:12:48;;;;;;;4.25;2.87;;;;;;;5.09;79.16;101530.81;1617849;87;26251;-76
2022/04/16 03:18:02;;;;;;;3.45;2.72;;;;;;;4.97;78.93;101527.88;1626033;86;26658;-76
2022/04/16 03:20:29;;;;;;;3.37;2.55;;;;;;;4.93;79.22;101545.03;1641327;86;26459;-76
2022/04/16 03:22:58;;;;;;;3.10;2.62;;;;;;;4.91;79.07;101551.43;1629000;86;27486;-77
2022/04/16 03:25:27;;;;;;;4.53;2.50;;;;;;;4.88;79.20;101551.67;1607268;88;25643;-76
2022/04/16 03:27:55;;;;;;;2.62;2.20;;;;;;;4.83;78.48;101553.88;1591890;88;25883;-77
2022/04/16 03:30:23;;;;;;;2.98;2.37;;;;;;;4.77;78.45;101555.22;1636648;86;26925;-77
2022/04/16 03:32:51;;;;;;;3.17;2.62;;;;;;;4.68;78.26;101559.98;1632886;87;25885;-76
2022/04/16 03:35:20;;;;;;;4.25;2.62;;;;;;;4.59;77.78;101568.20;1602969;88;27481;-76
2022/04/16 03:37:46;;;;;;;2.62;2.10;;;;;;;4.50;77.49;101576.90;1576546;88;25782;-77
2022/04/16 03:40:13;;;;;;;3.17;1.92;;;;;;;4.44;78.10;101580.05;1616949;86;25833;-77
2022/04/16 03:42:49;;;;;;;3.25;2.60;;;;;;;4.36;77.91;101569.19;1638673;86;25856;-77
2022/04/16 03:45:30;;;;;;;2.83;2.00;;;;;;;4.29;78.17;101586.59;1625781;86;26099;-76
2022/04/16 03:47:58;;;;;;;2.67;2.02;;;;;;;4.22;77.96;101587.18;1583230;88;27483;-75
2022/04/16 03:50:27;;;;;;;3.33;2.52;;;;;;;4.16;78.21;101592.50;1631266;86;25792;-75
2022/04/16 03:52:55;;;;;;;2.52;2.00;;;;;;;4.12;78.21;101594.19;1631594;86;25979;-76
2022/04/16 04:00:57;;;;;;;2.58;2.10;;;;;;;4.03;78.34;101605.51;1630109;86;28445;-76
2022/04/16 04:03:24;;;;;;;2.75;2.22;;;;;;;3.98;78.43;101615.14;1636192;86;25784;-76
2022/04/16 04:05:53;;;;;;;3.45;1.92;;;;;;;3.96;78.51;101622.88;1637917;86;25884;-77
2022/04/16 04:08:22;;;;;;;2.75;2.10;;;;;;;3.93;78.41;101616.48;1638909;86;26392;-76
2022/04/16 04:10:48;;;;;;;2.10;1.90;;;;;;;3.88;78.39;101628.76;1632430;86;26561;-76
2022/04/16 04:13:16;;;;;;;2.62;2.35;;;;;;;3.85;78.37;101631.62;1632515;86;28052;-75
2022/04/16 04:15:43;;;;;;;2.08;1.87;;;;;;;3.81;78.46;101635.48;1634401;86;25979;-75
2022/04/16 04:18:10;;;;;;;3.02;2.02;;;;;;;3.76;78.55;101641.64;1633033;86;25945;-75
2022/04/16 04:20:36;;;;;;;4.67;2.40;;;;;;;3.73;78.58;101638.73;1633984;86;25842;-75
2022/04/16 04:23:04;;;;;;;2.92;1.87;;;;;;;3.71;78.63;101639.34;1631286;86;25934;-75
2022/04/16 04:25:30;;;;;;;1.95;1.77;;;;;;;3.69;78.66;101639.94;1636086;86;27477;-76
2022/04/16 04:27:56;;;;;;;1.90;1.75;;;;;;;3.66;78.58;101650.76;1630321;86;25824;-75
2022/04/16 04:30:23;;;;;;;3.85;1.90;;;;;;;3.63;78.77;101644.86;1634353;86;26055;-75
2022/04/16 04:32:49;;;;;;;2.58;1.80;;;;;;;3.59;78.48;101650.03;1632154;86;26381;-75
2022/04/16 04:35:16;;;;;;;3.12;1.92;;;;;;;3.58;78.76;101666.40;1637890;86;25837;-76
2022/04/16 04:37:42;;;;;;;3.40;1.70;;;;;;;3.56;78.80;101663.02;1595540;88;27491;-75
2022/04/16 04:40:09;;;;;;;2.33;1.80;;;;;;;3.55;78.71;101667.94;1652307;86;25806;-76
2022/04/16 04:42:36;;;;;;;3.05;1.95;;;;;;;3.55;78.85;101671.91;1601181;88;25832;-76
2022/04/16 04:45:14;;;;;;;2.08;1.77;;;;;;;3.53;78.59;101669.86;1631997;86;25840;-76
2022/04/16 04:47:41;;;;;;;2.17;1.98;;;;;;;3.53;78.49;101676.98;1639985;86;26197;-76
2022/04/16 04:50:09;;;;;;;2.12;1.67;;;;;;;3.51;78.21;101685.50;1635781;86;27452;-76
2022/04/16 04:52:38;;;;;;;2.77;1.65;;;;;;;3.50;78.45;101686.48;1635492;86;25893;-76
2022/04/16 04:55:09;;;;;;;2.35;1.98;;;;;;;3.53;78.63;101690.23;1643295;86;25710;-75
2022/04/16 04:57:35;;;;;;;1.52;1.25;;;;;;;3.54;78.28;101696.73;1601737;88;25830;-76
2022/04/16 05:00:04;;;;;;;2.08;1.72;;;;;;;3.55;78.09;101705.02;1637221;86;25906;-75
2022/04/16 05:02:45;;;;;;;2.55;2.08;;;;;;;3.57;78.05;101699.63;1596536;88;27501;-76
2022/04/16 05:05:12;;;;;;;2.10;1.90;;;;;;;3.57;78.11;101706.26;1604131;88;25831;-76
2022/04/16 05:07:39;;;;;;;1.95;1.70;;;;;;;3.60;78.36;101709.52;1635443;86;25786;-77
2022/04/16 05:10:07;;;;;;;2.10;1.72;;;;;;;3.63;78.27;101704.00;1627885;87;25867;-76
2022/04/16 05:12:33;;;;;;;2.72;2.05;;;;;;;3.68;78.21;101711.09;1619205;87;26250;-75
2022/04/16 05:14:59;;;;;;;1.87;1.72;;;;;;;3.73;78.22;101709.42;1613183;87;28419;-77
2022/04/16 05:17:26;;;;;;;2.05;1.80;;;;;;;3.78;77.68;101715.23;1613933;87;25848;-75
2022/04/16 05:19:52;;;;;;;2.58;2.05;;;;;;;3.79;77.61;101718.23;1614403;87;25776;-76
2022/04/16 05:22:19;;;;;;;3.33;1.80;;;;;;;3.83;77.39;101725.84;1613178;87;25843;-76
2022/04/16 05:24:45;;;;;;;3.20;2.10;;;;;;;;;;1615328;87;26463;-76
2022/04/16 05:27:11;;;;;;;2.30;1.85;;;;;;;3.80;76.45;101726.09;1587660;88;27658;-75
2022/04/16 05:29:56;;;;;;;2.22;1.62;;;;;;;3.83;76.90;101731.14;1635764;86;25796;-76
2022/04/16 05:32:19;;;;;;;4.10;1.90;;;;;;;3.89;77.14;101734.64;1584828;88;26020;-77
2022/04/16 05:34:45;;;;;;;2.62;2.27;;;;;;;3.98;76.69;101746.36;1633463;86;25823;-74
2022/04/16 05:37:11;;;;;;;2.80;1.98;;;;;;;4.01;75.34;101742.63;1589598;88;25974;-75
2022/04/16 05:39:38;;;;;;;3.12;1.52;;;;;;;3.98;75.25;101741.56;1634415;86;27556;-77
2022/04/16 05:42:05;;;;;;;2.05;1.62;;;;;;;3.97;75.21;101751.78;1562969;90;26617;-76
2022/04/16 05:44:31;;;;;;;1.85;1.45;;;;;;;3.99;75.66;101759.14;1637992;86;26133;-75
2022/04/16 05:46:58;;;;;;;1.50;1.32;;;;;;;4.01;74.41;101762.52;1591878;88;25821;-76
2022/04/16 05:49:24;;;;;;;1.98;1.42;;;;;;;4.02;74.97;101758.41;1632211;86;25827;-76
2022/04/16 05:51:50;;;;;;;2.35;1.57;;;;;;;4.07;74.63;101755.41;1592173;88;27437;-76
2022/04/16 05:54:17;;;;;;;3.65;1.65;;;;;;;4.14;74.99;101757.97;1634412;86;25826;-76
2022/04/16 05:56:43;;;;;;;2.58;1.80;;;;;;;4.23;75.20;101762.58;1631210;86;25837;-75
2022/04/16 05:59:09;;;;;;;2.08;1.75;;;;;;;4.32;75.07;101756.58;1632104;86;25771;-75
2022/04/16 06:01:36;;;;;;;2.50;1.90;;;;;;;4.38;74.67;101746.34;1587204;88;26009;-74
2022/04/16 06:04:02;;;;;;;1.92;1.72;;;;;;;4.41;72.36;101753.19;1634889;86;28189;-76
2022/04/16 06:06:28;;;;;;;2.85;1.85;;;;;;;4.44;73.37;101758.27;1647186;86;25800;-78
2022/04/16 06:08:55;;;;;;;2.25;1.57;;;;;;;4.42;72.11;101758.39;1601487;87;25827;-75
2022/04/16 06:11:25;;;;;;;2.17;1.98;;;;;;;4.42;71.70;101760.20;1637592;86;25804;-75
2022/04/16 06:13:49;;;;;;;1.87;1.70;;;;;;;4.45;72.27;101760.79;1653716;86;26318;-75
2022/04/16 06:16:15;;;;;;;2.47;2.00;;;;;;;4.48;72.41;101761.04;1641711;86;27478;-76
2022/04/16 06:18:41;;;;;;;2.30;1.80;;;;;;;4.51;71.48;101766.12;1612009;87;26076;-76
2022/04/16 06:21:08;;;;;;;3.70;1.72;;;;;;;4.55;72.05;101764.44;1628144;87;25769;-76
2022/04/16 06:23:34;;;;;;;2.67;1.98;;;;;;;4.65;71.35;101772.51;1634405;86;25935;-77
2022/04/16 06:26:00;;;;;;;1.80;1.70;;;;;;;4.70;70.58;101775.66;1592675;88;26467;-76
2022/04/16 06:28:26;;;;;;;2.85;1.95;;;;;;;4.74;70.61;101777.09;1582111;88;28541;-75
2022/04/16 06:30:53;;;;;;;3.17;2.17;;;;;;;4.77;69.72;101775.52;1630379;86;26520;-76
2022/04/16 06:33:19;;;;;;;3.27;1.85;;;;;;;4.85;70.43;101785.55;1599616;87;25937;-76
2022/04/16 06:35:45;;;;;;;2.20;1.67;;;;;;;4.91;68.77;101795.20;1629249;86;25794;-76
2022/04/16 06:38:12;;;;;;;2.05;1.82;;;;;;;4.95;69.27;101783.84;1617577;87;26290;-75
2022/04/16 06:40:38;;;;;;;3.27;1.52;;;;;;;5.04;70.14;101786.63;1610099;87;27479;-76
2022/04/16 06:43:04;;;;;;;3.10;1.67;;;;;;;5.16;68.62;101795.40;1617785;87;25948;-75
2022/04/16 06:45:32;;;;;;;1.70;1.60;;;;;;;5.20;69.17;101773.78;1612241;87;26026;-76
2022/04/16 06:47:58;;;;;;;2.00;1.50;;;;;;;5.29;66.71;101778.36;1621570;86;26580;-75
2022/04/16 06:50:24;;;;;;;1.72;1.50;;;;;;;5.30;66.85;101798.63;1593006;88;26225;-76
2022/04/16 06:52:56;;;;;;;3.37;1.60;;;;;;;5.31;66.95;101790.19;1629063;87;27535;-76
2022/04/16 06:55:22;;;;;;;2.05;1.80;;;;;;;5.36;67.24;101795.50;1574259;88;26493;-76
2022/04/16 06:57:48;;;;;;;2.58;1.82;;;;;;;5.46;66.35;101786.28;1650076;86;25872;-76
2022/04/16 07:00:15;;;;;;;1.95;1.70;;;;;;;5.48;67.17;101791.84;1636481;86;25823;-75
2022/04/16 07:02:41;;;;;;;1.60;1.50;;;;;;;5.62;66.03;101788.06;1623084;87;25947;-76
2022/04/16 07:05:10;;;;;;;2.35;1.77;;;;;;;5.69;64.08;101807.02;1627326;86;27623;-75
2022/04/16 07:07:36;;;;;;;2.12;1.80;;;;;;;5.61;62.88;101814.27;1644697;86;26214;-76
2022/04/16 07:10:03;;;;;;;3.00;1.95;;;;;;;5.58;64.15;101793.75;1589092;88;26115;-76
2022/04/16 07:12:29;;;;;;;1.77;1.67;;;;;;;5.67;64.09;101795.63;1636157;86;25773;-76
2022/04/16 07:14:55;;;;;;;2.45;1.47;;;;;;;5.78;63.66;101805.75;1586834;88;26127;-75
2022/04/16 07:17:22;;;;;;;2.75;1.87;;;;;;;5.85;61.17;101804.32;1595901;88;27478;-75
2022/04/16 07:19:48;;;;;;;2.98;1.55;;;;;;;5.73;60.58;101821.23;1628504;86;25877;-76
2022/04/16 07:22:23;;;;;;;1.75;1.65;;;;;;;5.61;61.24;101800.98;1610803;87;25905;-76
2022/04/16 07:24:49;;;;;;;3.37;1.75;;;;;;;5.63;62.46;101807.02;1618613;86;26547;-76
2022/04/16 07:27:16;;;;;;;2.15;1.92;;;;;;;5.70;60.89;101819.31;1623397;86;26429;-75
2022/04/16 07:29:42;;;;;;;1.87;1.50;;;;;;;5.55;60.50;101821.90;1592649;88;28294;-76
2022/04/16 07:32:09;;;;;;;2.45;1.72;;;;;;;5.39;61.52;101818.30;1606437;87;26585;-76
2022/04/16 07:34:35;;;;;;;4.03;1.77;;;;;;;5.31;61.75;101828.70;1630587;86;26162;-76
2022/04/16 07:37:01;;;;;;;2.20;1.70;;;;;;;5.21;62.34;101833.08;1642926;86;26625;-75
2022/04/16 07:39:28;;;;;;;1.72;1.62;;;;;;;5.18;63.04;101838.14;1602573;88;25832;-76
2022/04/16 07:41:54;;;;;;;2.08;1.42;;;;;;;5.29;62.58;101854.08;1631254;86;27543;-75
2022/04/16 07:44:20;;;;;;;5.50;2.17;;;;;;;5.45;63.06;101834.59;1617538;87;25850;-76
2022/04/16 07:46:46;;;;;;;4.37;1.60;;;;;;;5.64;64.19;101841.09;1638134;86;25875;-76
2022/04/16 07:49:12;;;;;;;3.33;1.60;;;;;;;5.82;62.18;101845.73;1626642;86;25841;-74
2022/04/16 07:51:39;;;;;;;2.30;1.70;;;;;;;5.91;61.23;101857.47;1633084;86;25844;-75
2022/04/16 07:54:05;;;;;;;2.02;1.50;;;;;;;5.93;60.81;101860.84;1630899;87;28279;-75
2022/04/16 07:56:31;;;;;;;2.33;1.50;;;;;;;5.99;61.61;101870.97;1616927;87;25844;-74
2022/04/16 07:58:57;;;;;;;1.70;1.60;;;;;;;6.12;59.92;101871.65;1607459;87;25976;-76
2022/04/16 08:01:23;;;;;;;1.57;1.22;;;;;;;6.19;61.57;101849.75;1632730;86;25868;-76
2022/04/16 08:03:50;;;;;;;4.35;1.70;;;;;;;6.45;62.38;101845.38;1590852;88;25935;-75
2022/04/16 08:06:16;;;;;;;2.30;1.42;;;;;;;6.58;61.29;101855.34;1605145;88;28212;-76
2022/04/16 08:08:42;;;;;;;2.17;1.77;;;;;;;6.68;59.33;101849.09;1626042;86;25878;-75
2022/04/16 08:11:10;;;;;;;3.12;1.75;;;;;;;6.69;60.35;101854.76;1594851;88;25788;-78
2022/04/16 08:13:36;;;;;;;2.05;1.72;;;;;;;6.70;60.54;101854.28;1623719;86;25915;-76
2022/04/16 08:16:02;;;;;;;2.50;1.92;;;;;;;6.79;61.58;101853.50;1625581;86;25933;-75
2022/04/16 08:18:28;;;;;;;2.55;1.72;;;;;;;6.91;60.55;101834.64;1598498;88;27478;-75
2022/04/16 08:20:54;;;;;;;1.98;1.50;;;;;;;6.98;60.81;101846.94;1635219;86;25869;-75
2022/04/16 08:23:21;;;;;;;2.27;1.70;;;;;;;7.11;61.60;101858.70;1604723;88;26524;-75
2022/04/16 08:25:47;;;;;;;2.25;1.65;;;;;;;7.26;60.59;101850.22;1636082;86;26589;-76
2022/04/16 08:28:14;;;;;;;1.92;1.50;;;;;;;7.42;60.07;101858.53;1590439;88;26007;-75
2022/04/16 08:30:40;;;;;;;1.85;1.52;;;;;;;7.56;59.55;101858.64;1600707;88;28391;-76
2022/04/16 08:33:14;;;;;;;1.30;1.20;;;;;;;7.62;58.22;101858.09;1636546;86;25757;-75
2022/04/16 08:35:43;;;;;;;1.62;1.42;;;;;;;7.56;57.37;101859.50;1601920;88;25921;-76
2022/04/16 08:38:10;;;;;;;2.90;1.72;;;;;;;7.38;55.38;101862.93;1636073;86;25866;-75
2022/04/16 08:40:37;;;;;;;1.82;1.30;;;;;;;7.02;56.06;101872.33;1586320;88;26048;-75
2022/04/16 08:43:06;;;;;;;2.65;1.75;;;;;;;6.88;57.16;101870.02;1646370;86;27469;-75
2022/04/16 08:45:37;;;;;;;2.25;1.50;;;;;;;6.76;56.99;101879.05;1599553;88;25882;-75
2022/04/16 08:48:04;;;;;;;1.30;1.20;;;;;;;6.71;58.18;101874.63;1635240;86;25388;-76
2022/04/16 08:50:32;;;;;;;2.02;1.40;;;;;;;6.75;58.65;101874.23;1643932;86;26533;-75
2022/04/16 08:52:59;;;;;;;1.90;1.52;;;;;;;6.84;58.62;101882.74;1637357;86;25827;-75
2022/04/16 08:55:27;;;;;;;2.35;1.55;;;;;;;7.08;60.69;101861.13;1598018;88;28433;-75
2022/04/16 08:57:53;;;;;;;2.65;1.15;;;;;;;7.47;59.63;101864.30;1593620;88;25924;-75
2022/04/16 09:00:20;;;;;;;3.22;1.30;;;;;;;7.69;56.26;101864.58;1598537;88;25823;-75
2022/04/16 09:02:52;;;;;;;3.42;1.57;;;;;;;7.73;54.76;101866.83;1580949;88;26371;-76
2022/04/16 09:05:20;;;;;;;1.75;1.27;;;;;;;7.71;55.41;101870.61;1625787;86;25872;-77
2022/04/16 09:07:52;;;;;;;2.37;1.10;;;;;;;7.57;53.80;101877.16;1623687;86;27542;-76
2022/04/16 09:10:20;;;;;;;1.55;1.40;;;;;;;7.45;54.08;101882.75;1621553;86;25798;-75
2022/04/16 09:12:50;;;;;;;1.27;1.00;;;;;;;7.26;52.86;101883.53;1584111;86;25961;-75
2022/04/16 09:15:17;;;;;;;5.55;1.50;;;;;;;7.14;54.24;101875.28;1643477;86;25779;-75
2022/04/16 09:18:05;;;;;;;1.80;1.37;;;;;;;7.16;54.75;101881.80;1642104;86;25807;-75
2022/04/16 09:20:39;;;;;;;2.02;1.30;;;;;;;7.27;52.01;101881.71;1607835;87;27489;-76
2022/04/16 09:23:20;;;;;;;3.35;1.30;;;;;;;7.31;51.99;101878.65;1610836;87;25884;-75
2022/04/16 09:25:47;;;;;;;;;;;;;;;7.20;51.49;101875.22;1613587;87;25832;-76
2022/04/16 09:28:17;;;;;;;4.35;1.60;;;;;;;7.14;52.71;101886.42;1643981;86;26529;-76
2022/04/16 09:33:25;;;;;;;1.30;1.20;;;;;;;7.13;53.46;101883.39;1647622;84;28607;-76
2022/04/16 09:35:56;;;;;;;1.80;1.50;;;;;;;7.31;56.09;101875.98;1646176;84;26310;-76
2022/04/16 09:38:24;;;;;;;;;;;;;;;7.48;54.13;101888.67;1647535;85;25863;-76
2022/04/16 09:40:50;;;;;;;1.47;1.35;;;;;;;7.43;52.39;101883.38;1645789;85;26594;-77
2022/04/16 09:43:16;;;;;;;1.90;1.27;;;;;;;7.37;53.66;101899.42;1627846;86;25747;-76
2022/04/16 09:45:43;;;;;;;1.37;1.20;;;;;;;7.34;52.83;101889.02;1615797;87;27477;-76
2022/04/16 09:48:11;;;;;;;3.77;1.67;;;;;;;7.38;52.36;101880.25;1647251;85;26567;-76
2022/04/16 09:50:40;;;;;;;1.98;1.17;;;;;;;7.48;51.51;101878.00;1671764;84;26421;-77
2022/04/16 09:53:07;;;;;;;4.75;1.52;;;;;;;7.55;52.13;101874.27;1678554;84;25906;-76
2022/04/16 09:55:34;;;;;;;1.30;1.20;;;;;;;7.60;52.72;101873.39;1672542;84;25762;-76
2022/04/16 09:58:03;;;;;;;1.57;1.35;;;;;;;7.71;51.86;101881.28;1672924;84;27519;-77
2022/04/16 10:00:33;;;;;;;2.27;1.07;;;;;;;7.84;51.48;101880.53;1679376;84;26743;-76
2022/04/16 10:03:00;;;;;;;1.10;0.93;;;;;;;7.88;50.53;101891.28;1672327;84;26643;-76
2022/04/16 10:05:26;;;;;;;1.47;1.20;;;;;;;7.90;50.06;101883.98;1642902;84;26558;-76
2022/04/16 10:07:53;;;;;;;1.60;1.50;;;;;;;7.95;51.06;101887.09;1647396;86;53973;-77
2022/04/16 10:10:30;;;;;;;1.67;1.30;;;;;;;7.90;48.91;101888.47;1645043;86;27458;-76
2022/04/16 10:13:05;;;;;;;2.17;0.93;;;;;;;7.82;48.58;101901.17;1644571;86;26491;-76
2022/04/16 10:16:04;;;;;;;2.75;1.72;;;;;;;7.88;49.89;101896.62;1652292;86;25776;-75
2022/04/16 10:21:22;;;;;;;1.82;1.10;;;;;;;8.19;49.30;101880.02;1613021;87;25837;-74
2022/04/16 10:23:49;;;;;;;3.17;1.00;;;;;;;8.39;49.02;101897.73;1626247;87;27461;-73
2022/04/16 10:26:17;;;;;;;1.57;1.10;;;;;;;8.44;47.17;101895.01;1595972;88;26140;-74
2022/04/16 10:28:55;;;;;;;1.22;1.10;;;;;;;8.54;48.08;101883.81;1621869;87;25677;-74
2022/04/16 10:31:28;;;;;;;1.32;1.17;;;;;;;8.74;50.30;101877.95;1623854;87;26329;-74
2022/04/16 10:34:02;;;;;;;2.12;1.20;;;;;;;8.91;46.91;101882.55;1614990;87;25889;-73
2022/04/16 10:36:39;;;;;;;1.90;1.30;;;;;;;8.97;48.25;101859.25;1625082;86;28080;-73
2022/04/16 10:39:17;;;;;;;1.17;1.07;;;;;;;8.87;46.77;101873.63;1625121;86;25834;-73
2022/04/16 10:42:01;;;;;;;1.42;1.20;;;;;;;8.69;47.61;101894.05;1615654;87;26118;-73
2022/04/16 10:44:38;;;;;;;2.77;1.42;;;;;;;8.52;47.92;101882.27;1626379;87;26578;-73
2022/04/16 10:47:04;;;;;;;1.10;1.00;;;;;;;8.67;47.63;101894.20;1600794;87;25935;-73
2022/04/16 10:49:31;;;;;;;1.35;1.25;;;;;;;8.75;46.00;101870.27;1616131;87;27474;-73
2022/04/16 10:51:57;;;;;;;3.22;1.05;;;;;;;8.88;47.87;101887.33;1625531;87;25996;-75
2022/04/16 10:54:34;;;;;;;1.32;1.20;;;;;;;9.02;47.26;101879.72;1617719;87;26093;-74
2022/04/16 10:57:03;;;;;;;5.30;1.55;;;;;;;8.94;44.77;101872.08;1617827;88;25841;-73
2022/04/16 10:59:42;;;;;;;1.67;1.02;;;;;;;8.77;45.71;101891.00;1617826;88;25820;-74
2022/04/16 11:02:28;;;;;;;1.40;1.30;;;;;;;8.69;46.22;101883.36;1615747;87;27508;-74
2022/04/16 11:05:09;;;;;;;1.20;1.10;;;;;;;8.71;46.38;101892.07;1635637;84;25810;-74
2022/04/16 11:07:39;;;;;;;2.20;1.02;;;;;;;8.84;45.76;101884.59;1664852;84;26485;-74
2022/04/16 11:10:10;;;;;;;1.05;1.00;;;;;;;8.90;44.48;101894.70;1638448;87;25808;-73
2022/04/16 11:12:41;;;;;;;3.80;1.30;;;;;;;8.81;43.72;101883.56;1671752;85;25866;-73
2022/04/16 11:15:14;;;;;;;2.05;1.32;;;;;;;8.74;45.06;101902.48;1664773;84;27586;-73
2022/04/16 11:17:40;;;;;;;3.08;2.05;;;;;;;8.92;46.61;101902.08;1671772;85;25932;-73
2022/04/16 11:20:08;;;;;;;1.32;1.20;;;;;;;9.24;45.14;101890.52;1642845;87;26538;-74
2022/04/16 11:22:34;;;;;;;2.47;1.27;;;;;;;9.31;45.33;101893.81;1680491;84;26577;-74
2022/04/16 11:25:07;;;;;;;1.32;1.20;;;;;;;9.29;44.42;101885.58;1693379;84;26507;-74
2022/04/16 11:36:01;;;;;;;1.22;1.12;;;;;;;9.02;43.01;101897.58;1688193;84;25786;-73
2022/04/16 11:38:31;;;;;;;1.72;1.32;;;;;;;9.08;42.81;101901.00;1672680;84;26607;-75
2022/04/16 11:41:00;;;;;;;3.40;1.17;;;;;;;9.29;44.00;101888.25;1667686;84;27485;-74
2022/04/16 11:43:30;;;;;;;1.42;1.10;;;;;;;9.55;44.40;101900.45;1671764;84;25845;-73
2022/04/16 11:46:00;;;;;;;2.58;1.10;;;;;;;9.63;43.13;101889.35;1666423;84;25876;-73
2022/04/16 11:48:26;;;;;;;1.35;1.20;;;;;;;9.41;42.00;101905.78;1677653;84;26010;-73
2022/04/16 11:50:53;;;;;;;1.98;1.05;;;;;;;9.29;44.10;101909.64;1688920;84;26528;-74
2022/04/16 11:53:19;;;;;;;1.85;1.30;;;;;;;9.35;43.47;101907.71;1688961;84;27488;-73
2022/04/16 11:55:51;;;;;;;1.20;1.10;;;;;;;9.51;44.67;101899.06;1678987;84;25925;-74
2022/04/16 11:58:22;;;;;;;1.57;1.30;;;;;;;9.58;42.88;101897.49;1680615;84;25592;-74
2022/04/16 12:00:55;;;;;;;6.37;1.90;;;;;;;9.69;45.07;101898.60;1676251;84;25764;-73
2022/04/16 12:03:25;;;;;;;1.85;1.30;;;;;;;9.89;42.75;101900.19;1683227;84;26482;-75